sensor_id;sensor_type;location;lat;lon;timestamp;P1;durP1;ratioP1;P2;durP2;ratioP2
67712;SDS011;67640;55.784;49.138;2024-01-25T00:04:13;10.38;;;2.92;;
67712;SDS011;67640;55.784;49.138;2024-01-25T00:09:31;11.00;;;3.20;;
67712;SDS011;67640;55.784;49.138;2024-01-25T00:14:37;12.40;;;3.03;;
67712;SDS011;67640;55.784;49.138;2024-01-25T00:19:59;11.70;;;3.17;;
67712;SDS011;67640;55.784;49.138;2024-01-25T00:25:18;10.30;;;2.98;;
67712;SDS011;67640;55.784;49.138;2024-01-25T00:30:37;6.50;;;2.30;;
67712;SDS011;67640;55.784;49.138;2024-01-25T00:35:56;8.63;;;2.77;;
67712;SDS011;67640;55.784;49.138;2024-01-25T00:41:02;7.93;;;2.73;;
67712;SDS011;67640;55.784;49.138;2024-01-25T00:46:08;8.05;;;2.60;;
67712;SDS011;67640;55.784;49.138;2024-01-25T00:56:52;9.03;;;2.73;;
67712;SDS011;67640;55.784;49.138;2024-01-25T01:02:13;8.03;;;2.90;;
67712;SDS011;67640;55.784;49.138;2024-01-25T01:07:18;9.25;;;3.10;;
67712;SDS011;67640;55.784;49.138;2024-01-25T01:12:37;7.63;;;2.50;;
67712;SDS011;67640;55.784;49.138;2024-01-25T01:17:59;7.25;;;2.40;;
67712;SDS011;67640;55.784;49.138;2024-01-25T01:23:18;7.03;;;2.42;;
67712;SDS011;67640;55.784;49.138;2024-01-25T01:28:38;7.40;;;2.40;;
67712;SDS011;67640;55.784;49.138;2024-01-25T01:33:44;11.18;;;2.58;;
67712;SDS011;67640;55.784;49.138;2024-01-25T01:38:49;8.25;;;2.77;;
67712;SDS011;67640;55.784;49.138;2024-01-25T01:44:07;8.10;;;2.80;;
67712;SDS011;67640;55.784;49.138;2024-01-25T01:49:12;8.25;;;2.83;;
67712;SDS011;67640;55.784;49.138;2024-01-25T01:54:18;10.10;;;3.20;;
67712;SDS011;67640;55.784;49.138;2024-01-25T01:59:40;7.97;;;2.70;;
67712;SDS011;67640;55.784;49.138;2024-01-25T02:04:59;10.88;;;3.10;;
67712;SDS011;67640;55.784;49.138;2024-01-25T02:10:18;8.48;;;2.90;;
67712;SDS011;67640;55.784;49.138;2024-01-25T02:15:24;8.65;;;3.22;;
67712;SDS011;67640;55.784;49.138;2024-01-25T02:20:30;8.10;;;2.83;;
67712;SDS011;67640;55.784;49.138;2024-01-25T02:25:35;9.07;;;3.23;;
67712;SDS011;67640;55.784;49.138;2024-01-25T02:30:54;6.80;;;2.52;;
67712;SDS011;67640;55.784;49.138;2024-01-25T02:36:13;11.43;;;3.02;;
67712;SDS011;67640;55.784;49.138;2024-01-25T02:41:32;10.03;;;2.72;;
67712;SDS011;67640;55.784;49.138;2024-01-25T02:46:37;9.28;;;2.85;;
67712;SDS011;67640;55.784;49.138;2024-01-25T02:51:42;7.87;;;2.50;;
67712;SDS011;67640;55.784;49.138;2024-01-25T02:56:47;7.67;;;2.62;;
67712;SDS011;67640;55.784;49.138;2024-01-25T03:02:06;7.78;;;2.70;;
67712;SDS011;67640;55.784;49.138;2024-01-25T03:07:25;7.75;;;2.25;;
67712;SDS011;67640;55.784;49.138;2024-01-25T03:12:30;8.43;;;2.55;;
67712;SDS011;67640;55.784;49.138;2024-01-25T03:17:49;9.43;;;2.90;;
67712;SDS011;67640;55.784;49.138;2024-01-25T03:22:54;7.75;;;2.72;;
67712;SDS011;67640;55.784;49.138;2024-01-25T03:28:05;12.45;;;2.92;;
67712;SDS011;67640;55.784;49.138;2024-01-25T03:33:25;10.63;;;3.52;;
67712;SDS011;67640;55.784;49.138;2024-01-25T03:39:05;8.85;;;2.10;;
67712;SDS011;67640;55.784;49.138;2024-01-25T03:44:43;9.73;;;2.77;;
67712;SDS011;67640;55.784;49.138;2024-01-25T03:49:49;8.70;;;2.72;;
67712;SDS011;67640;55.784;49.138;2024-01-25T03:54:54;9.48;;;2.60;;
67712;SDS011;67640;55.784;49.138;2024-01-25T04:00:12;9.30;;;2.50;;
67712;SDS011;67640;55.784;49.138;2024-01-25T04:05:17;9.18;;;2.80;;
67712;SDS011;67640;55.784;49.138;2024-01-25T04:10:36;8.03;;;2.67;;
67712;SDS011;67640;55.784;49.138;2024-01-25T04:15:55;8.93;;;2.80;;
67712;SDS011;67640;55.784;49.138;2024-01-25T04:21:14;8.50;;;2.62;;
67712;SDS011;67640;55.784;49.138;2024-01-25T04:26:33;8.90;;;3.00;;
67712;SDS011;67640;55.784;49.138;2024-01-25T04:37:04;9.68;;;2.83;;
67712;SDS011;67640;55.784;49.138;2024-01-25T04:42:09;8.53;;;3.00;;
67712;SDS011;67640;55.784;49.138;2024-01-25T04:47:28;8.03;;;2.60;;
67712;SDS011;67640;55.784;49.138;2024-01-25T04:52:48;11.70;;;2.90;;
67712;SDS011;67640;55.784;49.138;2024-01-25T04:57:53;8.33;;;2.87;;
67712;SDS011;67640;55.784;49.138;2024-01-25T05:03:12;9.03;;;2.42;;
67712;SDS011;67640;55.784;49.138;2024-01-25T05:08:30;9.23;;;3.10;;
67712;SDS011;67640;55.784;49.138;2024-01-25T05:13:34;7.10;;;2.37;;
67712;SDS011;67640;55.784;49.138;2024-01-25T05:18:40;8.93;;;2.60;;
67712;SDS011;67640;55.784;49.138;2024-01-25T05:23:59;10.28;;;3.30;;
67712;SDS011;67640;55.784;49.138;2024-01-25T05:29:18;7.67;;;2.40;;
67712;SDS011;67640;55.784;49.138;2024-01-25T05:34:38;10.78;;;2.58;;
67712;SDS011;67640;55.784;49.138;2024-01-25T05:39:43;7.00;;;2.83;;
67712;SDS011;67640;55.784;49.138;2024-01-25T05:44:48;8.28;;;2.35;;
67712;SDS011;67640;55.784;49.138;2024-01-25T06:00:44;8.18;;;2.42;;
67712;SDS011;67640;55.784;49.138;2024-01-25T06:05:58;14.30;;;3.83;;
67712;SDS011;67640;55.784;49.138;2024-01-25T06:11:16;11.67;;;5.07;;
67712;SDS011;67640;55.784;49.138;2024-01-25T06:16:21;12.73;;;5.15;;
67712;SDS011;67640;55.784;49.138;2024-01-25T06:21:27;12.85;;;3.98;;
67712;SDS011;67640;55.784;49.138;2024-01-25T06:26:46;9.47;;;3.50;;
67712;SDS011;67640;55.784;49.138;2024-01-25T06:32:01;12.30;;;3.50;;
67712;SDS011;67640;55.784;49.138;2024-01-25T06:37:06;8.48;;;3.08;;
67712;SDS011;67640;55.784;49.138;2024-01-25T06:42:26;7.17;;;2.53;;
67712;SDS011;67640;55.784;49.138;2024-01-25T06:47:31;7.95;;;2.80;;
67712;SDS011;67640;55.784;49.138;2024-01-25T06:52:50;10.30;;;3.08;;
67712;SDS011;67640;55.784;49.138;2024-01-25T06:58:05;8.03;;;2.97;;
67712;SDS011;67640;55.784;49.138;2024-01-25T07:03:10;7.78;;;2.83;;
67712;SDS011;67640;55.784;49.138;2024-01-25T07:08:29;9.65;;;3.10;;
67712;SDS011;67640;55.784;49.138;2024-01-25T07:13:35;15.57;;;4.53;;
67712;SDS011;67640;55.784;49.138;2024-01-25T07:18:40;12.75;;;4.12;;
67712;SDS011;67640;55.784;49.138;2024-01-25T07:24:22;11.50;;;3.97;;
67712;SDS011;67640;55.784;49.138;2024-01-25T07:29:43;11.57;;;4.03;;
67712;SDS011;67640;55.784;49.138;2024-01-25T07:35:02;12.13;;;3.90;;
67712;SDS011;67640;55.784;49.138;2024-01-25T07:40:08;12.37;;;4.47;;
67712;SDS011;67640;55.784;49.138;2024-01-25T07:45:27;16.37;;;6.72;;
67712;SDS011;67640;55.784;49.138;2024-01-25T07:50:32;17.10;;;5.73;;
67712;SDS011;67640;55.784;49.138;2024-01-25T07:55:51;22.77;;;5.97;;
67712;SDS011;67640;55.784;49.138;2024-01-25T08:01:10;14.65;;;5.17;;
67712;SDS011;67640;55.784;49.138;2024-01-25T08:06:15;19.03;;;6.20;;
67712;SDS011;67640;55.784;49.138;2024-01-25T08:11:44;19.42;;;5.92;;
67712;SDS011;67640;55.784;49.138;2024-01-25T08:16:49;25.70;;;6.78;;
67712;SDS011;67640;55.784;49.138;2024-01-25T08:22:12;16.17;;;5.23;;
67712;SDS011;67640;55.784;49.138;2024-01-25T08:27:17;16.48;;;5.55;;
67712;SDS011;67640;55.784;49.138;2024-01-25T08:32:36;13.62;;;4.25;;
67712;SDS011;67640;55.784;49.138;2024-01-25T08:37:55;12.58;;;4.03;;
67712;SDS011;67640;55.784;49.138;2024-01-25T08:43:01;13.55;;;4.20;;
67712;SDS011;67640;55.784;49.138;2024-01-25T08:48:07;14.50;;;4.97;;
67712;SDS011;67640;55.784;49.138;2024-01-25T08:53:27;13.32;;;4.55;;
67712;SDS011;67640;55.784;49.138;2024-01-25T08:58:34;15.00;;;5.08;;
67712;SDS011;67640;55.784;49.138;2024-01-25T09:03:53;15.30;;;4.60;;
67712;SDS011;67640;55.784;49.138;2024-01-25T09:09:12;11.75;;;4.12;;
67712;SDS011;67640;55.784;49.138;2024-01-25T09:14:17;14.10;;;4.97;;
67712;SDS011;67640;55.784;49.138;2024-01-25T09:19:36;16.37;;;4.40;;
67712;SDS011;67640;55.784;49.138;2024-01-25T09:24:57;13.75;;;4.30;;
67712;SDS011;67640;55.784;49.138;2024-01-25T09:30:03;11.03;;;4.03;;
67712;SDS011;67640;55.784;49.138;2024-01-25T09:35:10;8.28;;;3.02;;
67712;SDS011;67640;55.784;49.138;2024-01-25T09:40:28;11.08;;;3.55;;
67712;SDS011;67640;55.784;49.138;2024-01-25T09:45:33;9.15;;;2.80;;
67712;SDS011;67640;55.784;49.138;2024-01-25T09:50:52;10.70;;;2.87;;
67712;SDS011;67640;55.784;49.138;2024-01-25T09:56:13;9.60;;;3.17;;
67712;SDS011;67640;55.784;49.138;2024-01-25T10:01:19;7.77;;;2.77;;
67712;SDS011;67640;55.784;49.138;2024-01-25T10:06:39;9.23;;;2.90;;
67712;SDS011;67640;55.784;49.138;2024-01-25T10:11:45;8.83;;;3.17;;
67712;SDS011;67640;55.784;49.138;2024-01-25T10:17:07;10.55;;;2.85;;
67712;SDS011;67640;55.784;49.138;2024-01-25T10:22:24;6.78;;;2.40;;
67712;SDS011;67640;55.784;49.138;2024-01-25T10:27:30;8.73;;;2.58;;
67712;SDS011;67640;55.784;49.138;2024-01-25T10:32:49;7.73;;;2.77;;
67712;SDS011;67640;55.784;49.138;2024-01-25T10:37:55;7.12;;;3.08;;
67712;SDS011;67640;55.784;49.138;2024-01-25T10:43:14;8.00;;;2.70;;
67712;SDS011;67640;55.784;49.138;2024-01-25T10:48:33;9.78;;;3.30;;
67712;SDS011;67640;55.784;49.138;2024-01-25T10:53:40;11.08;;;4.10;;
67712;SDS011;67640;55.784;49.138;2024-01-25T10:58:59;8.98;;;2.42;;
67712;SDS011;67640;55.784;49.138;2024-01-25T11:09:43;8.63;;;2.70;;
67712;SDS011;67640;55.784;49.138;2024-01-25T11:20:42;8.90;;;2.70;;
67712;SDS011;67640;55.784;49.138;2024-01-25T11:26:01;7.90;;;3.15;;
67712;SDS011;67640;55.784;49.138;2024-01-25T11:31:06;6.80;;;2.12;;
67712;SDS011;67640;55.784;49.138;2024-01-25T11:36:12;7.20;;;2.50;;
67712;SDS011;67640;55.784;49.138;2024-01-25T11:41:43;8.70;;;2.45;;
67712;SDS011;67640;55.784;49.138;2024-01-25T11:46:49;8.97;;;2.43;;
67712;SDS011;67640;55.784;49.138;2024-01-25T11:52:08;7.45;;;2.37;;
67712;SDS011;67640;55.784;49.138;2024-01-25T11:57:13;8.67;;;2.70;;
67712;SDS011;67640;55.784;49.138;2024-01-25T12:02:32;10.05;;;2.77;;
67712;SDS011;67640;55.784;49.138;2024-01-25T12:07:52;7.00;;;2.67;;
67712;SDS011;67640;55.784;49.138;2024-01-25T12:12:57;8.50;;;3.23;;
67712;SDS011;67640;55.784;49.138;2024-01-25T12:18:16;14.43;;;2.90;;
67712;SDS011;67640;55.784;49.138;2024-01-25T12:23:21;7.77;;;2.80;;
67712;SDS011;67640;55.784;49.138;2024-01-25T12:28:40;9.58;;;3.00;;
67712;SDS011;67640;55.784;49.138;2024-01-25T12:34:00;7.62;;;2.60;;
67712;SDS011;67640;55.784;49.138;2024-01-25T12:39:05;10.80;;;3.03;;
67712;SDS011;67640;55.784;49.138;2024-01-25T12:44:24;12.63;;;2.90;;
67712;SDS011;67640;55.784;49.138;2024-01-25T12:49:30;8.20;;;3.00;;
67712;SDS011;67640;55.784;49.138;2024-01-25T12:55:08;7.77;;;3.07;;
67712;SDS011;67640;55.784;49.138;2024-01-25T13:00:15;9.00;;;3.20;;
67712;SDS011;67640;55.784;49.138;2024-01-25T13:05:20;9.15;;;2.80;;
67712;SDS011;67640;55.784;49.138;2024-01-25T13:10:25;9.75;;;3.22;;
67712;SDS011;67640;55.784;49.138;2024-01-25T13:15:29;9.68;;;3.12;;
67712;SDS011;67640;55.784;49.138;2024-01-25T13:20:53;8.77;;;3.40;;
67712;SDS011;67640;55.784;49.138;2024-01-25T13:26:17;9.28;;;2.77;;
67712;SDS011;67640;55.784;49.138;2024-01-25T13:31:35;9.28;;;3.10;;
67712;SDS011;67640;55.784;49.138;2024-01-25T13:36:40;8.80;;;2.67;;
67712;SDS011;67640;55.784;49.138;2024-01-25T13:41:58;11.33;;;2.63;;
67712;SDS011;67640;55.784;49.138;2024-01-25T13:47:03;9.15;;;3.10;;
67712;SDS011;67640;55.784;49.138;2024-01-25T13:52:23;9.08;;;2.83;;
67712;SDS011;67640;55.784;49.138;2024-01-25T13:57:28;7.90;;;3.00;;
67712;SDS011;67640;55.784;49.138;2024-01-25T14:02:33;11.65;;;3.20;;
67712;SDS011;67640;55.784;49.138;2024-01-25T14:07:52;8.83;;;2.90;;
67712;SDS011;67640;55.784;49.138;2024-01-25T14:13:11;9.70;;;3.72;;
67712;SDS011;67640;55.784;49.138;2024-01-25T14:18:16;9.68;;;3.12;;
67712;SDS011;67640;55.784;49.138;2024-01-25T14:23:35;8.95;;;2.98;;
67712;SDS011;67640;55.784;49.138;2024-01-25T14:28:40;10.13;;;3.17;;
67712;SDS011;67640;55.784;49.138;2024-01-25T14:33:58;10.18;;;3.22;;
67712;SDS011;67640;55.784;49.138;2024-01-25T14:39:02;12.80;;;3.23;;
67712;SDS011;67640;55.784;49.138;2024-01-25T14:44:08;8.48;;;2.75;;
67712;SDS011;67640;55.784;49.138;2024-01-25T14:49:15;9.87;;;3.10;;
67712;SDS011;67640;55.784;49.138;2024-01-25T14:54:37;10.48;;;3.90;;
67712;SDS011;67640;55.784;49.138;2024-01-25T15:00:01;8.88;;;3.55;;
67712;SDS011;67640;55.784;49.138;2024-01-25T15:05:21;10.23;;;3.60;;
67712;SDS011;67640;55.784;49.138;2024-01-25T15:10:41;13.25;;;3.92;;
67712;SDS011;67640;55.784;49.138;2024-01-25T15:16:00;14.43;;;3.83;;
67712;SDS011;67640;55.784;49.138;2024-01-25T15:21:05;9.68;;;3.50;;
67712;SDS011;67640;55.784;49.138;2024-01-25T15:26:42;9.45;;;3.20;;
67712;SDS011;67640;55.784;49.138;2024-01-25T15:31:48;6.90;;;2.47;;
67712;SDS011;67640;55.784;49.138;2024-01-25T15:37:07;8.40;;;2.95;;
67712;SDS011;67640;55.784;49.138;2024-01-25T15:42:26;8.55;;;2.37;;
67712;SDS011;67640;55.784;49.138;2024-01-25T15:47:45;7.63;;;2.60;;
67712;SDS011;67640;55.784;49.138;2024-01-25T15:53:04;6.72;;;2.52;;
67712;SDS011;67640;55.784;49.138;2024-01-25T15:58:09;6.45;;;2.52;;
67712;SDS011;67640;55.784;49.138;2024-01-25T16:03:15;8.83;;;3.05;;
67712;SDS011;67640;55.784;49.138;2024-01-25T16:08:21;8.10;;;2.33;;
67712;SDS011;67640;55.784;49.138;2024-01-25T16:13:39;7.50;;;2.25;;
67712;SDS011;67640;55.784;49.138;2024-01-25T16:18:44;9.47;;;2.90;;
67712;SDS011;67640;55.784;49.138;2024-01-25T16:24:04;7.40;;;2.33;;
67712;SDS011;67640;55.784;49.138;2024-01-25T16:29:23;10.43;;;3.20;;
67712;SDS011;67640;55.784;49.138;2024-01-25T16:34:48;8.03;;;2.30;;
67712;SDS011;67640;55.784;49.138;2024-01-25T16:40:08;7.40;;;2.30;;
67712;SDS011;67640;55.784;49.138;2024-01-25T16:45:27;7.07;;;2.63;;
67712;SDS011;67640;55.784;49.138;2024-01-25T16:50:33;6.60;;;1.65;;
67712;SDS011;67640;55.784;49.138;2024-01-25T16:55:38;8.20;;;2.50;;
67712;SDS011;67640;55.784;49.138;2024-01-25T17:00:57;8.00;;;2.00;;
67712;SDS011;67640;55.784;49.138;2024-01-25T17:06:03;16.12;;;5.90;;
67712;SDS011;67640;55.784;49.138;2024-01-25T17:11:28;18.07;;;5.45;;
67712;SDS011;67640;55.784;49.138;2024-01-25T17:16:34;19.23;;;7.50;;
67712;SDS011;67640;55.784;49.138;2024-01-25T17:22:12;10.95;;;4.10;;
67712;SDS011;67640;55.784;49.138;2024-01-25T17:27:31;11.55;;;3.12;;
67712;SDS011;67640;55.784;49.138;2024-01-25T17:32:50;7.30;;;2.57;;
67712;SDS011;67640;55.784;49.138;2024-01-25T17:38:12;8.35;;;1.95;;
67712;SDS011;67640;55.784;49.138;2024-01-25T17:43:17;6.07;;;2.17;;
67712;SDS011;67640;55.784;49.138;2024-01-25T17:48:22;7.00;;;2.40;;
67712;SDS011;67640;55.784;49.138;2024-01-25T17:53:27;8.90;;;2.52;;
67712;SDS011;67640;55.784;49.138;2024-01-25T17:58:45;7.30;;;2.17;;
67712;SDS011;67640;55.784;49.138;2024-01-25T18:03:50;9.23;;;2.60;;
67712;SDS011;67640;55.784;49.138;2024-01-25T18:09:09;8.38;;;2.47;;
67712;SDS011;67640;55.784;49.138;2024-01-25T18:14:14;5.83;;;1.90;;
67712;SDS011;67640;55.784;49.138;2024-01-25T18:19:34;5.47;;;1.90;;
67712;SDS011;67640;55.784;49.138;2024-01-25T18:24:53;7.10;;;2.20;;
67712;SDS011;67640;55.784;49.138;2024-01-25T18:29:58;9.93;;;2.75;;
67712;SDS011;67640;55.784;49.138;2024-01-25T18:35:03;7.87;;;2.42;;
67712;SDS011;67640;55.784;49.138;2024-01-25T18:40:08;5.63;;;1.63;;
67712;SDS011;67640;55.784;49.138;2024-01-25T18:45:26;7.87;;;2.30;;
67712;SDS011;67640;55.784;49.138;2024-01-25T18:50:31;9.88;;;2.40;;
67712;SDS011;67640;55.784;49.138;2024-01-25T18:55:37;8.67;;;2.07;;
67712;SDS011;67640;55.784;49.138;2024-01-25T19:00:56;10.48;;;2.47;;
67712;SDS011;67640;55.784;49.138;2024-01-25T19:06:15;8.98;;;2.80;;
67712;SDS011;67640;55.784;49.138;2024-01-25T19:11:34;7.03;;;2.20;;
67712;SDS011;67640;55.784;49.138;2024-01-25T19:16:39;8.93;;;2.80;;
67712;SDS011;67640;55.784;49.138;2024-01-25T19:21:46;10.03;;;2.63;;
67712;SDS011;67640;55.784;49.138;2024-01-25T19:27:07;9.88;;;2.83;;
67712;SDS011;67640;55.784;49.138;2024-01-25T19:32:25;9.55;;;2.52;;
67712;SDS011;67640;55.784;49.138;2024-01-25T19:37:30;10.48;;;2.83;;
67712;SDS011;67640;55.784;49.138;2024-01-25T19:42:36;12.05;;;3.08;;
67712;SDS011;67640;55.784;49.138;2024-01-25T19:47:55;8.78;;;3.27;;
67712;SDS011;67640;55.784;49.138;2024-01-25T19:53:14;9.20;;;2.73;;
67712;SDS011;67640;55.784;49.138;2024-01-25T19:58:33;8.83;;;2.83;;
67712;SDS011;67640;55.784;49.138;2024-01-25T20:03:39;8.83;;;2.52;;
67712;SDS011;67640;55.784;49.138;2024-01-25T20:08:44;8.75;;;2.45;;
67712;SDS011;67640;55.784;49.138;2024-01-25T20:13:52;10.30;;;2.83;;
67712;SDS011;67640;55.784;49.138;2024-01-25T20:19:06;8.70;;;2.53;;
67712;SDS011;67640;55.784;49.138;2024-01-25T20:24:25;8.00;;;2.40;;
67712;SDS011;67640;55.784;49.138;2024-01-25T20:29:44;10.00;;;2.60;;
67712;SDS011;67640;55.784;49.138;2024-01-25T20:35:05;9.30;;;2.43;;
67712;SDS011;67640;55.784;49.138;2024-01-25T20:40:10;10.88;;;2.50;;
67712;SDS011;67640;55.784;49.138;2024-01-25T20:45:29;7.83;;;2.70;;
67712;SDS011;67640;55.784;49.138;2024-01-25T20:50:49;9.67;;;3.00;;
67712;SDS011;67640;55.784;49.138;2024-01-25T20:56:08;8.28;;;2.42;;
67712;SDS011;67640;55.784;49.138;2024-01-25T21:01:27;7.43;;;2.83;;
67712;SDS011;67640;55.784;49.138;2024-01-25T21:06:32;13.50;;;3.45;;
67712;SDS011;67640;55.784;49.138;2024-01-25T21:11:37;13.08;;;2.95;;
67712;SDS011;67640;55.784;49.138;2024-01-25T21:16:52;7.93;;;2.40;;
67712;SDS011;67640;55.784;49.138;2024-01-25T21:22:11;8.53;;;2.62;;
67712;SDS011;67640;55.784;49.138;2024-01-25T21:27:30;10.70;;;2.90;;
67712;SDS011;67640;55.784;49.138;2024-01-25T21:32:37;16.73;;;2.98;;
67712;SDS011;67640;55.784;49.138;2024-01-25T21:37:56;7.35;;;2.33;;
67712;SDS011;67640;55.784;49.138;2024-01-25T21:43:02;11.27;;;2.33;;
67712;SDS011;67640;55.784;49.138;2024-01-25T21:48:12;8.90;;;2.70;;
67712;SDS011;67640;55.784;49.138;2024-01-25T21:53:31;8.63;;;2.40;;
67712;SDS011;67640;55.784;49.138;2024-01-25T21:58:36;9.73;;;2.60;;
67712;SDS011;67640;55.784;49.138;2024-01-25T22:03:41;9.83;;;2.67;;
67712;SDS011;67640;55.784;49.138;2024-01-25T22:09:00;13.20;;;2.17;;
67712;SDS011;67640;55.784;49.138;2024-01-25T22:14:07;7.72;;;2.33;;
67712;SDS011;67640;55.784;49.138;2024-01-25T22:19:12;8.63;;;2.30;;
67712;SDS011;67640;55.784;49.138;2024-01-25T22:24:29;6.80;;;1.97;;
67712;SDS011;67640;55.784;49.138;2024-01-25T22:29:34;6.72;;;1.80;;
67712;SDS011;67640;55.784;49.138;2024-01-25T22:34:53;7.97;;;2.50;;
67712;SDS011;67640;55.784;49.138;2024-01-25T22:40:12;6.50;;;2.02;;
67712;SDS011;67640;55.784;49.138;2024-01-25T22:45:31;7.25;;;2.12;;
67712;SDS011;67640;55.784;49.138;2024-01-25T22:50:50;6.27;;;1.90;;
67712;SDS011;67640;55.784;49.138;2024-01-25T22:55:56;9.10;;;2.33;;
67712;SDS011;67640;55.784;49.138;2024-01-25T23:01:14;8.73;;;2.25;;
67712;SDS011;67640;55.784;49.138;2024-01-25T23:06:39;7.30;;;2.73;;
67712;SDS011;67640;55.784;49.138;2024-01-25T23:11:58;8.43;;;2.33;;
67712;SDS011;67640;55.784;49.138;2024-01-25T23:17:03;9.25;;;2.70;;
67712;SDS011;67640;55.784;49.138;2024-01-25T23:22:35;7.60;;;2.95;;
67712;SDS011;67640;55.784;49.138;2024-01-25T23:27:40;7.27;;;2.10;;
67712;SDS011;67640;55.784;49.138;2024-01-25T23:33:00;7.53;;;2.50;;
67712;SDS011;67640;55.784;49.138;2024-01-25T23:38:05;10.18;;;1.95;;
67712;SDS011;67640;55.784;49.138;2024-01-25T23:43:24;7.97;;;1.60;;
67712;SDS011;67640;55.784;49.138;2024-01-25T23:48:43;6.50;;;1.60;;
67712;SDS011;67640;55.784;49.138;2024-01-25T23:53:48;7.87;;;1.93;;
67712;SDS011;67640;55.784;49.138;2024-01-25T23:59:06;6.77;;;1.73;;
